createdAt,value
2022-09-10T00:02:00.293Z,99462.34
2022-09-10T00:04:28.425Z,99460.72
2022-09-10T00:06:56.311Z,99451.84
2022-09-10T00:09:24.402Z,99457.81
2022-09-10T00:11:53.165Z,99451.38
2022-09-10T00:14:22.509Z,99453.63
2022-09-10T00:16:50.644Z,99454.66
2022-09-10T00:19:18.942Z,99458.00
2022-09-10T00:21:46.475Z,99456.97
2022-09-10T00:24:14.460Z,99464.16
2022-09-10T00:26:42.392Z,99458.81
2022-09-10T00:29:12.842Z,99462.63
2022-09-10T00:31:40.667Z,99465.66
2022-09-10T00:34:08.995Z,99464.16
2022-09-10T00:36:39.626Z,99461.72
2022-09-10T00:39:09.313Z,99470.09
2022-09-10T00:41:38.398Z,99473.53
2022-09-10T00:44:07.547Z,99471.47
2022-09-10T00:46:42.598Z,99476.28
2022-09-10T00:49:15.454Z,99469.97
2022-09-10T00:51:43.340Z,99472.78
2022-09-10T00:54:11.011Z,99480.50
2022-09-10T00:56:39.008Z,99486.63
2022-09-10T00:59:08.809Z,99483.13
2022-09-10T01:01:38.460Z,99491.31
2022-09-10T01:04:07.550Z,99483.81
2022-09-10T01:06:35.112Z,99489.03
2022-09-10T01:09:03.046Z,99481.47
2022-09-10T01:11:42.407Z,99481.00
2022-09-10T01:14:24.914Z,99490.53
2022-09-10T01:17:03.223Z,99487.94
2022-09-10T01:19:59.041Z,99487.94
2022-09-10T01:22:32.797Z,99491.13
2022-09-10T01:25:04.974Z,99495.25
2022-09-10T01:27:39.150Z,99497.03
2022-09-10T01:30:10.143Z,99496.47
2022-09-10T01:32:53.570Z,99495.88
2022-09-10T01:35:26.071Z,99500.75
2022-09-10T01:37:57.089Z,99498.25
2022-09-10T01:40:29.666Z,99494.44
2022-09-10T01:43:06.100Z,99496.78
2022-09-10T01:45:43.248Z,99492.53
2022-09-10T01:48:31.774Z,99489.81
2022-09-10T01:51:04.340Z,99496.72
2022-09-10T01:53:47.121Z,99494.69
2022-09-10T01:56:24.326Z,99489.41
2022-09-10T01:58:58.030Z,99496.78
2022-09-10T02:01:42.311Z,99495.50
2022-09-10T02:04:11.941Z,99495.50
2022-09-10T02:06:42.598Z,99488.94
2022-09-10T02:09:11.718Z,99488.81
2022-09-10T02:11:47.220Z,99495.38
2022-09-10T02:14:23.657Z,99490.44
2022-09-10T02:17:13.136Z,99488.91
2022-09-10T02:19:40.909Z,99482.50
2022-09-10T02:22:08.365Z,99482.53
2022-09-10T02:24:35.782Z,99488.66
2022-09-10T02:27:03.267Z,99483.16
2022-09-10T02:29:32.183Z,99479.09
2022-09-10T02:32:00.030Z,99482.88
2022-09-10T02:34:27.505Z,99481.75
2022-09-10T02:36:57.502Z,99478.25
2022-09-10T02:39:25.904Z,99487.78
2022-09-10T02:41:53.563Z,99491.75
2022-09-10T02:44:23.369Z,99491.06
2022-09-10T02:46:52.122Z,99487.28
2022-09-10T02:49:20.847Z,99482.06
2022-09-10T02:51:50.310Z,99488.31
2022-09-10T02:54:19.746Z,99487.94
2022-09-10T02:56:49.756Z,99479.31
2022-09-10T02:59:17.962Z,99479.75
2022-09-10T03:01:45.633Z,99485.22
2022-09-10T03:04:15.836Z,99482.59
2022-09-10T03:06:43.585Z,99483.03
2022-09-10T03:09:11.317Z,99484.59
2022-09-10T03:11:40.027Z,99477.22
2022-09-10T03:14:08.275Z,99477.28
2022-09-10T03:16:35.992Z,99470.69
2022-09-10T03:19:04.782Z,99478.97
2022-09-10T03:21:34.241Z,99481.72
2022-09-10T03:24:03.216Z,99475.47
2022-09-10T03:26:32.735Z,99483.31
2022-09-10T03:29:00.237Z,99478.34
2022-09-10T03:31:30.910Z,99480.16
2022-09-10T03:33:59.620Z,99472.16
2022-09-10T03:36:31.121Z,99478.22
2022-09-10T03:39:00.068Z,99473.41
2022-09-10T03:41:30.802Z,99480.88
2022-09-10T03:43:59.344Z,99477.25
2022-09-10T03:46:27.674Z,99480.75
2022-09-10T03:48:58.537Z,99469.50
2022-09-10T03:51:27.615Z,99474.38
2022-09-10T03:53:56.105Z,99480.44
2022-09-10T03:56:25.738Z,99485.91
2022-09-10T03:58:53.364Z,99488.97
2022-09-10T04:01:20.963Z,99487.97
2022-09-10T04:03:49.597Z,99488.94
2022-09-10T04:06:17.372Z,99486.69
2022-09-10T04:08:44.933Z,99488.84
2022-09-10T04:11:15.004Z,99493.50
2022-09-10T04:13:45.265Z,99497.03
2022-09-10T04:16:13.387Z,99485.25
2022-09-10T04:18:41.318Z,99490.16
2022-09-10T04:21:09.269Z,99493.91
2022-09-10T04:23:38.126Z,99497.81
2022-09-10T04:26:12.457Z,99493.28
2022-09-10T04:28:40.515Z,99499.50
2022-09-10T04:31:10.208Z,99500.53
2022-09-10T04:33:38.313Z,99508.34
2022-09-10T04:36:07.367Z,99506.50
2022-09-10T04:38:40.451Z,99501.53
2022-09-10T04:41:08.930Z,99503.22
2022-09-10T04:43:37.948Z,99507.72
2022-09-10T04:46:06.874Z,99502.09
2022-09-10T04:48:37.736Z,99503.00
2022-09-10T04:51:16.219Z,99507.75
2022-09-10T04:53:46.699Z,99515.34
2022-09-10T04:56:14.491Z,99501.00
2022-09-10T04:58:43.790Z,99511.00
2022-09-10T05:01:12.039Z,99512.16
2022-09-10T05:03:41.759Z,99507.59
2022-09-10T05:06:10.054Z,99518.44
2022-09-10T05:08:37.643Z,99514.28
2022-09-10T05:11:06.219Z,99514.66
2022-09-10T05:13:34.269Z,99512.81
2022-09-10T05:16:02.871Z,99520.84
2022-09-10T05:18:32.729Z,99514.88
2022-09-10T05:21:01.913Z,99506.13
2022-09-10T05:23:29.813Z,99509.25
2022-09-10T05:25:59.993Z,99518.75
2022-09-10T05:28:28.273Z,99509.94
2022-09-10T05:30:55.966Z,99511.94
2022-09-10T05:33:26.496Z,99518.41
2022-09-10T05:35:54.133Z,99522.06
2022-09-10T05:38:24.805Z,99515.28
2022-09-10T05:40:52.399Z,99514.66
2022-09-10T05:43:20.657Z,99516.84
2022-09-10T05:45:49.142Z,99522.59
2022-09-10T05:48:17.523Z,99516.69
2022-09-10T05:50:45.397Z,99513.66
2022-09-10T05:53:13.852Z,99517.31
2022-09-10T05:55:49.729Z,99513.59
2022-09-10T05:58:18.341Z,99520.47
2022-09-10T06:00:46.654Z,99508.47
2022-09-10T06:03:14.564Z,99520.56
2022-09-10T06:05:50.206Z,99520.63
2022-09-10T06:08:20.662Z,99519.00
2022-09-10T06:10:57.905Z,99514.06
2022-09-10T06:13:27.686Z,99522.06
2022-09-10T06:15:56.461Z,99517.72
2022-09-10T06:18:26.410Z,99522.13
2022-09-10T06:21:02.448Z,99515.84
2022-09-10T06:23:31.217Z,99515.31
2022-09-10T06:26:05.139Z,99518.03
2022-09-10T06:28:34.772Z,99516.53
2022-09-10T06:31:03.626Z,99517.13
2022-09-10T06:33:33.325Z,99521.66
2022-09-10T06:36:02.989Z,99526.00
2022-09-10T06:38:33.048Z,99530.47
2022-09-10T06:41:02.211Z,99531.38
2022-09-10T06:43:37.611Z,99537.34
2022-09-10T06:46:40.663Z,99524.00
2022-09-10T06:49:06.958Z,99537.50
2022-09-10T06:51:36.794Z,99530.03
2022-09-10T06:54:05.617Z,99525.78
2022-09-10T06:56:33.202Z,99525.44
2022-09-10T06:59:02.908Z,99531.91
2022-09-10T07:01:36.037Z,99535.16
2022-09-10T07:04:06.142Z,99528.38
2022-09-10T07:06:35.914Z,99530.81
2022-09-10T07:09:12.163Z,99530.66
2022-09-10T07:11:49.026Z,99531.47
2022-09-10T07:14:19.252Z,99530.97
2022-09-10T07:16:47.431Z,99534.13
2022-09-10T07:19:17.595Z,99533.50
2022-09-10T07:21:46.242Z,99538.28
2022-09-10T07:24:15.765Z,99528.50
2022-09-10T07:26:58.533Z,99534.50
2022-09-10T07:29:31.169Z,99541.09
2022-09-10T07:31:58.913Z,99548.41
2022-09-10T07:34:27.837Z,99546.34
2022-09-10T07:36:56.573Z,99545.59
2022-09-10T07:39:26.817Z,99552.16
2022-09-10T07:41:56.370Z,99558.69
2022-09-10T07:44:29.178Z,99553.34
2022-09-10T07:47:01.474Z,99561.38
2022-09-10T07:49:29.078Z,99568.56
2022-09-10T07:51:59.940Z,99561.91
2022-09-10T07:54:32.090Z,99559.25
2022-09-10T07:57:00.842Z,99560.66
2022-09-10T07:59:30.091Z,99565.63
2022-09-10T08:02:01.013Z,99568.63
2022-09-10T08:04:35.945Z,99572.31
2022-09-10T08:07:05.701Z,99578.53
2022-09-10T08:09:35.293Z,99584.25
2022-09-10T08:12:04.252Z,99577.34
2022-09-10T08:14:33.068Z,99588.75
2022-09-10T08:17:02.057Z,99585.31
2022-09-10T08:19:29.705Z,99585.59
2022-09-10T08:21:57.569Z,99586.88
2022-09-10T08:24:31.458Z,99587.91
2022-09-10T08:26:59.013Z,99597.56
2022-09-10T08:29:26.939Z,99598.66
2022-09-10T08:31:55.744Z,99601.56
2022-09-10T08:34:29.433Z,99597.47
2022-09-10T08:37:04.538Z,99603.78
2022-09-10T08:39:34.597Z,99599.44
2022-09-10T08:42:05.930Z,99603.00
2022-09-10T08:44:38.225Z,99594.78
2022-09-10T08:47:19.762Z,99593.06
2022-09-10T08:49:50.089Z,99599.22
2022-09-10T08:52:27.093Z,99604.47
2022-09-10T08:54:59.609Z,99601.78
2022-09-10T08:57:31.615Z,99608.34
2022-09-10T08:59:59.473Z,99613.94
2022-09-10T09:02:48.440Z,99621.13
2022-09-10T09:05:19.308Z,99617.41
2022-09-10T09:07:53.134Z,99614.97
2022-09-10T09:10:30.116Z,99618.34
2022-09-10T09:13:17.249Z,99621.09
2022-09-10T09:15:51.494Z,99617.84
2022-09-10T09:18:27.933Z,99626.28
2022-09-10T09:20:58.148Z,99626.97
2022-09-10T09:23:32.783Z,99627.19
2022-09-10T09:26:04.189Z,99618.63
2022-09-10T09:28:37.605Z,99629.13
2022-09-10T09:31:13.914Z,99621.00
2022-09-10T09:33:43.415Z,99623.84
2022-09-10T09:36:14.779Z,99626.75
2022-09-10T09:38:44.897Z,99631.94
2022-09-10T09:41:22.105Z,99630.75
2022-09-10T09:43:54.128Z,99629.69
2022-09-10T09:46:24.218Z,99632.31
2022-09-10T09:48:58.544Z,99629.72
2022-09-10T09:51:28.735Z,99624.81
2022-09-10T09:54:34.631Z,99623.78
2022-09-10T09:56:50.745Z,99618.91
2022-09-10T09:59:32.294Z,99614.22
2022-09-10T10:02:05.032Z,99606.34
2022-09-10T10:04:36.992Z,99609.34
2022-09-10T10:07:07.327Z,99601.41
2022-09-10T10:09:38.457Z,99599.91
2022-09-10T10:12:07.109Z,99607.66
2022-09-10T10:14:39.236Z,99593.06
2022-09-10T10:17:26.997Z,99598.53
2022-09-10T10:20:04.820Z,99600.94
2022-09-10T10:22:32.632Z,99602.00
2022-09-10T10:25:01.201Z,99598.59
2022-09-10T10:27:32.650Z,99605.22
2022-09-10T10:30:02.765Z,99597.41
2022-09-10T10:32:38.527Z,99599.84
2022-09-10T10:35:29.289Z,99593.66
2022-09-10T10:38:18.226Z,99599.00
2022-09-10T10:40:49.566Z,99604.66
2022-09-10T10:43:24.523Z,99610.22
2022-09-10T10:45:59.271Z,99604.75
2022-09-10T10:48:37.872Z,99598.47
2022-09-10T10:51:14.761Z,99592.06
2022-09-10T10:53:53.624Z,99599.88
2022-09-10T10:56:26.725Z,99587.00
2022-09-10T10:59:05.291Z,99588.91
2022-09-10T11:01:36.168Z,99585.66
2022-09-10T11:04:19.249Z,99579.16
2022-09-10T11:06:57.139Z,99586.75
2022-09-10T11:09:27.069Z,99589.97
2022-09-10T11:11:57.549Z,99584.28
2022-09-10T11:14:28.764Z,99580.13
2022-09-10T11:16:59.210Z,99570.44
2022-09-10T11:20:10.824Z,99570.13
2022-09-10T11:22:45.158Z,99574.16
2022-09-10T11:25:19.229Z,99579.06
2022-09-10T11:27:49.057Z,99573.09
2022-09-10T11:30:18.008Z,99576.41
2022-09-10T11:32:47.786Z,99581.06
2022-09-10T11:35:21.943Z,99576.63
2022-09-10T11:38:04.557Z,99571.81
2022-09-10T11:40:36.025Z,99564.38
2022-09-10T11:43:07.276Z,99565.31
2022-09-10T11:45:41.003Z,99558.53
2022-09-10T11:48:14.578Z,99558.34
2022-09-10T11:50:47.462Z,99564.69
2022-09-10T11:53:17.885Z,99574.50
2022-09-10T11:55:59.353Z,99586.78
2022-09-10T11:58:32.002Z,99587.41
2022-09-10T12:01:05.009Z,99607.00
2022-09-10T12:04:04.360Z,99615.91
2022-09-10T12:06:38.231Z,99602.09
2022-09-10T12:09:12.904Z,99613.00
2022-09-10T12:11:48.217Z,99611.94
2022-09-10T12:14:17.338Z,99609.50
2022-09-10T12:16:47.126Z,99613.66
2022-09-10T12:19:22.989Z,99613.06
2022-09-10T12:21:52.976Z,99611.66
2022-09-10T12:24:29.189Z,99606.88
2022-09-10T12:26:56.818Z,99617.19
2022-09-10T12:29:30.932Z,99615.59
2022-09-10T12:32:28.784Z,99616.09
2022-09-10T12:35:45.177Z,99609.31
2022-09-10T12:38:46.653Z,99607.03
2022-09-10T12:41:53.967Z,99603.97
2022-09-10T12:44:30.325Z,99607.81
2022-09-10T12:47:30.877Z,99605.72
2022-09-10T12:50:00.765Z,99608.75
2022-09-10T12:52:38.873Z,99608.06
2022-09-10T12:55:14.369Z,99605.94
2022-09-10T12:57:51.057Z,99603.72
2022-09-10T13:00:21.914Z,99592.84
2022-09-10T13:02:54.945Z,99602.78
2022-09-10T13:05:27.418Z,99597.19
2022-09-10T13:08:02.959Z,99594.25
2022-09-10T13:10:30.809Z,99589.44
2022-09-10T13:13:03.161Z,99590.72
2022-09-10T13:15:35.544Z,99588.47
2022-09-10T13:18:28.072Z,99574.88
2022-09-10T13:20:55.671Z,99586.00
2022-09-10T13:23:48.557Z,99583.44
2022-09-10T13:26:48.282Z,99593.44
2022-09-10T13:29:32.426Z,99589.78
2022-09-10T13:32:03.045Z,99590.03
2022-09-10T13:35:04.135Z,99590.03
2022-09-10T13:37:41.721Z,99593.28
2022-09-10T13:40:31.765Z,99591.63
2022-09-10T13:43:12.115Z,99599.00
2022-09-10T13:45:42.177Z,99594.09
2022-09-10T13:48:12.901Z,99592.22
2022-09-10T13:50:47.735Z,99587.03
2022-09-10T13:53:16.725Z,99592.34
2022-09-10T13:55:50.862Z,99590.63
2022-09-10T13:58:21.078Z,99579.75
2022-09-10T14:00:53.705Z,99586.19
2022-09-10T14:03:23.629Z,99579.84
2022-09-10T14:05:53.177Z,99586.50
2022-09-10T14:08:23.009Z,99589.50
2022-09-10T14:10:53.497Z,99596.47
2022-09-10T14:13:25.432Z,99594.06
2022-09-10T14:15:56.598Z,99594.03
2022-09-10T14:18:26.986Z,99600.56
2022-09-10T14:20:54.454Z,99593.41
2022-09-10T14:23:23.240Z,99603.22
2022-09-10T14:26:12.948Z,99598.75
2022-09-10T14:28:53.931Z,99602.16
2022-09-10T14:31:35.078Z,99605.28
2022-09-10T14:34:33.246Z,99606.75
2022-09-10T14:37:01.594Z,99606.22
2022-09-10T14:39:29.113Z,99613.81
2022-09-10T14:42:10.773Z,99601.19
2022-09-10T14:44:42.330Z,99604.81
2022-09-10T14:47:27.025Z,99596.69
2022-09-10T14:49:54.455Z,99599.84
2022-09-10T14:52:22.520Z,99593.59
2022-09-10T14:54:49.992Z,99588.91
2022-09-10T14:57:18.095Z,99587.06
2022-09-10T14:59:47.452Z,99587.34
2022-09-10T15:02:18.082Z,99588.84
2022-09-10T15:04:45.798Z,99583.72
2022-09-10T15:07:13.748Z,99575.19
2022-09-10T15:09:41.532Z,99580.19
2022-09-10T15:12:11.928Z,99574.47
2022-09-10T15:14:39.691Z,99575.88
2022-09-10T15:17:08.344Z,99581.72
2022-09-10T15:19:37.221Z,99582.19
2022-09-10T15:22:04.786Z,99580.66
2022-09-10T15:24:42.771Z,99578.44
2022-09-10T15:27:19.708Z,99589.28
2022-09-10T15:29:47.233Z,99584.66
2022-09-10T15:32:14.729Z,99592.41
2022-09-10T15:34:44.549Z,99594.00
2022-09-10T15:37:12.387Z,99603.88
2022-09-10T15:39:39.884Z,99602.03
2022-09-10T15:42:08.001Z,99593.47
2022-09-10T15:44:35.473Z,99604.25
2022-09-10T15:47:03.293Z,99601.75
2022-09-10T15:49:31.023Z,99600.78
2022-09-10T15:52:00.219Z,99601.53
2022-09-10T15:54:27.876Z,99603.94
2022-09-10T15:56:55.322Z,99604.63
2022-09-10T15:59:25.573Z,99610.00
2022-09-10T16:01:53.086Z,99614.66
2022-09-10T16:04:20.670Z,99615.97
2022-09-10T16:06:48.125Z,99617.69
2022-09-10T16:09:17.138Z,99619.72
2022-09-10T16:11:48.144Z,99613.16
2022-09-10T16:14:18.354Z,99620.13
2022-09-10T16:16:46.126Z,99620.34
2022-09-10T16:19:14.202Z,99618.59
2022-09-10T16:21:43.721Z,99633.03
2022-09-10T16:24:11.246Z,99627.03
2022-09-10T16:26:41.683Z,99620.59
2022-09-10T16:29:14.185Z,99628.31
2022-09-10T16:31:41.821Z,99631.59
2022-09-10T16:34:12.286Z,99631.56
2022-09-10T16:36:40.629Z,99630.75
2022-09-10T16:39:12.190Z,99635.81
2022-09-10T16:41:41.699Z,99635.63
2022-09-10T16:44:09.513Z,99630.38
2022-09-10T16:46:38.384Z,99630.03
2022-09-10T16:49:08.302Z,99634.72
2022-09-10T16:51:36.207Z,99632.97
2022-09-10T16:54:06.592Z,99636.72
2022-09-10T16:56:35.668Z,99634.59
2022-09-10T16:59:10.101Z,99628.19
2022-09-10T17:01:37.946Z,99635.56
2022-09-10T17:04:07.351Z,99630.19
2022-09-10T17:06:36.624Z,99632.50
2022-09-10T17:09:04.453Z,99641.31
2022-09-10T17:11:34.200Z,99634.06
2022-09-10T17:14:02.471Z,99636.88
2022-09-10T17:16:32.657Z,99634.41
2022-09-10T17:19:01.688Z,99636.41
2022-09-10T17:21:31.366Z,99642.09
2022-09-10T17:23:59.704Z,99640.78
2022-09-10T17:26:27.872Z,99651.06
2022-09-10T17:28:56.344Z,99653.53
2022-09-10T17:31:23.957Z,99652.59
2022-09-10T17:33:52.859Z,99655.38
2022-09-10T17:36:20.584Z,99657.81
2022-09-10T17:38:48.129Z,99661.16
2022-09-10T17:41:15.913Z,99658.75
2022-09-10T17:43:44.321Z,99668.09
2022-09-10T17:46:14.746Z,99670.88
2022-09-10T17:48:44.588Z,99677.28
2022-09-10T17:51:15.451Z,99666.38
2022-09-10T17:53:44.312Z,99678.41
2022-09-10T17:56:13.133Z,99674.44
2022-09-10T17:58:40.857Z,99675.72
2022-09-10T18:01:12.982Z,99688.50
2022-09-10T18:03:41.098Z,99689.34
2022-09-10T18:06:11.713Z,99702.41
2022-09-10T18:08:41.492Z,99704.19
2022-09-10T18:11:11.309Z,99705.81
2022-09-10T18:13:38.767Z,99714.00
2022-09-10T18:16:09.722Z,99711.19
2022-09-10T18:18:37.767Z,99716.38
2022-09-10T18:21:13.580Z,99715.16
2022-09-10T18:23:44.182Z,99723.16
2022-09-10T18:26:13.536Z,99728.16
2022-09-10T18:28:41.049Z,99725.03
2022-09-10T18:31:12.143Z,99738.25
2022-09-10T18:33:41.092Z,99731.81
2022-09-10T18:36:13.662Z,99741.09
2022-09-10T18:38:42.997Z,99735.72
2022-09-10T18:41:18.542Z,99738.63
2022-09-10T18:43:46.087Z,99742.13
2022-09-10T18:46:13.687Z,99742.03
2022-09-10T18:48:41.963Z,99746.09
2022-09-10T18:51:10.745Z,99751.31
2022-09-10T18:53:38.259Z,99749.28
2022-09-10T18:56:09.822Z,99755.66
2022-09-10T18:58:37.511Z,99760.50
2022-09-10T19:01:06.335Z,99760.63
2022-09-10T19:03:38.454Z,99763.91
2022-09-10T19:06:08.067Z,99761.47
2022-09-10T19:08:36.658Z,99764.84
2022-09-10T19:11:05.337Z,99772.28
2022-09-10T19:13:34.119Z,99771.63
2022-09-10T19:16:02.916Z,99771.25
2022-09-10T19:18:31.429Z,99775.88
2022-09-10T19:21:03.821Z,99767.44
2022-09-10T19:23:34.596Z,99770.78
2022-09-10T19:26:02.800Z,99780.63
2022-09-10T19:28:33.430Z,99793.81
2022-09-10T19:31:04.781Z,99788.78
2022-09-10T19:33:32.685Z,99789.66
2022-09-10T19:36:01.581Z,99790.09
2022-09-10T19:38:37.432Z,99794.16
2022-09-10T19:41:06.897Z,99798.06
2022-09-10T19:43:34.555Z,99790.00
2022-09-10T19:46:03.409Z,99802.75
2022-09-10T19:48:30.933Z,99800.75
2022-09-10T19:51:00.133Z,99810.03
2022-09-10T19:53:27.649Z,99812.72
2022-09-10T19:55:55.113Z,99807.59
2022-09-10T19:58:22.584Z,99816.47
2022-09-10T20:00:50.036Z,99813.63
2022-09-10T20:03:18.838Z,99812.78
2022-09-10T20:05:46.278Z,99826.19
2022-09-10T20:08:13.860Z,99822.91
2022-09-10T20:10:41.594Z,99822.28
2022-09-10T20:13:10.209Z,99821.84
2022-09-10T20:15:44.878Z,99816.81
2022-09-10T20:18:13.278Z,99820.47
2022-09-10T20:20:42.617Z,99821.50
2022-09-10T20:23:10.408Z,99822.56
2022-09-10T20:25:38.359Z,99823.44
2022-09-10T20:28:06.465Z,99825.91
2022-09-10T20:30:34.918Z,99824.81
2022-09-10T20:33:02.445Z,99827.13
2022-09-10T20:35:30.211Z,99838.94
2022-09-10T20:37:59.564Z,99837.09
2022-09-10T20:40:27.023Z,99833.56
2022-09-10T20:42:54.469Z,99826.13
2022-09-10T20:45:21.980Z,99822.06
2022-09-10T20:47:49.441Z,99825.41
2022-09-10T20:50:17.073Z,99829.78
2022-09-10T20:52:44.549Z,99831.63
2022-09-10T20:55:13.357Z,99834.13
2022-09-10T20:57:40.793Z,99835.22
2022-09-10T21:00:10.843Z,99838.34
2022-09-10T21:02:39.068Z,99839.34
2022-09-10T21:05:07.624Z,99843.66
2022-09-10T21:07:35.246Z,99842.03
2022-09-10T21:10:02.926Z,99841.88
2022-09-10T21:12:31.697Z,99838.97
2022-09-10T21:14:59.177Z,99846.44
2022-09-10T21:17:26.613Z,99842.25
2022-09-10T21:19:54.069Z,99851.50
2022-09-10T21:22:22.054Z,99843.72
2022-09-10T21:24:49.558Z,99844.59
2022-09-10T21:27:17.019Z,99846.00
2022-09-10T21:29:46.424Z,99843.72
2022-09-10T21:32:13.905Z,99853.56
2022-09-10T21:34:41.334Z,99855.63
2022-09-10T21:37:09.757Z,99856.25
2022-09-10T21:39:37.254Z,99852.34
2022-09-10T21:42:05.452Z,99853.34
2022-09-10T21:44:33.061Z,99853.13
2022-09-10T21:47:01.821Z,99856.81
2022-09-10T21:49:29.285Z,99862.00
2022-09-10T21:51:57.433Z,99865.09
2022-09-10T21:54:25.513Z,99867.34
2022-09-10T21:56:53.313Z,99872.53
2022-09-10T21:59:21.462Z,99864.94
2022-09-10T22:01:49.382Z,99868.91
2022-09-10T22:04:22.577Z,99867.09
2022-09-10T22:06:50.501Z,99865.91
2022-09-10T22:09:18.011Z,99865.75
2022-09-10T22:11:46.744Z,99875.22
2022-09-10T22:14:15.955Z,99872.53
2022-09-10T22:16:43.952Z,99877.06
2022-09-10T22:19:14.246Z,99882.84
2022-09-10T22:21:43.078Z,99893.16
2022-09-10T22:24:12.380Z,99895.00
2022-09-10T22:26:42.452Z,99895.59
2022-09-10T22:29:10.655Z,99892.88
2022-09-10T22:31:38.139Z,99897.66
2022-09-10T22:34:07.733Z,99902.44
2022-09-10T22:36:37.332Z,99900.59
2022-09-10T22:39:07.718Z,99908.41
2022-09-10T22:41:36.760Z,99910.09
2022-09-10T22:44:05.874Z,99910.56
2022-09-10T22:46:34.188Z,99913.66
2022-09-10T22:49:02.138Z,99914.47
2022-09-10T22:51:31.545Z,99926.00
2022-09-10T22:53:59.045Z,99927.06
2022-09-10T22:56:28.817Z,99921.69
2022-09-10T22:58:57.202Z,99926.84
2022-09-10T23:01:27.345Z,99939.63
2022-09-10T23:03:56.754Z,99929.69
2022-09-10T23:06:26.277Z,99930.53
2022-09-10T23:08:55.401Z,99935.03
2022-09-10T23:11:24.822Z,99934.03
2022-09-10T23:13:57.087Z,99940.19
2022-09-10T23:16:26.418Z,99936.06
2022-09-10T23:18:55.105Z,99935.41
2022-09-10T23:21:23.995Z,99943.69
2022-09-10T23:23:52.755Z,99948.66
2022-09-10T23:26:20.461Z,99953.41
2022-09-10T23:28:48.121Z,99951.56
2022-09-10T23:31:19.077Z,99954.25
2022-09-10T23:33:48.579Z,99950.75
2022-09-10T23:36:16.197Z,99959.84
2022-09-10T23:38:44.516Z,99954.47
2022-09-10T23:41:12.753Z,99960.22
2022-09-10T23:43:41.074Z,99964.31
2022-09-10T23:46:09.328Z,99963.31
2022-09-10T23:48:38.705Z,99966.41
2022-09-10T23:51:07.418Z,99961.28
2022-09-10T23:53:34.959Z,99962.94
2022-09-10T23:56:03.028Z,99955.91
2022-09-10T23:58:30.819Z,99962.94
